sensor_id;sensor_type;location;lat;lon;timestamp;P1;durP1;ratioP1;P2;durP2;ratioP2
82635;SDS011;72317;37.280;-121.948;2023-08-20T00:01:13;4.38;;;3.22;;
82635;SDS011;72317;37.280;-121.948;2023-08-20T00:03:54;5.22;;;3.20;;
82635;SDS011;72317;37.280;-121.948;2023-08-20T00:06:21;5.95;;;3.00;;
82635;SDS011;72317;37.280;-121.948;2023-08-20T00:08:51;3.28;;;2.97;;
82635;SDS011;72317;37.280;-121.948;2023-08-20T00:11:38;4.45;;;3.42;;
82635;SDS011;72317;37.280;-121.948;2023-08-20T00:14:17;3.88;;;3.35;;
82635;SDS011;72317;37.280;-121.948;2023-08-20T00:16:52;3.35;;;2.63;;
82635;SDS011;72317;37.280;-121.948;2023-08-20T00:19:24;4.57;;;3.03;;
82635;SDS011;72317;37.280;-121.948;2023-08-20T00:22:04;3.05;;;2.70;;
82635;SDS011;72317;37.280;-121.948;2023-08-20T00:24:39;3.78;;;2.92;;
82635;SDS011;72317;37.280;-121.948;2023-08-20T00:27:05;3.83;;;3.00;;
82635;SDS011;72317;37.280;-121.948;2023-08-20T00:29:39;3.67;;;2.90;;
82635;SDS011;72317;37.280;-121.948;2023-08-20T00:32:20;4.28;;;2.65;;
82635;SDS011;72317;37.280;-121.948;2023-08-20T00:34:49;4.13;;;2.90;;
82635;SDS011;72317;37.280;-121.948;2023-08-20T00:37:16;2.90;;;2.55;;
82635;SDS011;72317;37.280;-121.948;2023-08-20T00:42:41;3.95;;;2.83;;
82635;SDS011;72317;37.280;-121.948;2023-08-20T00:45:12;4.85;;;2.97;;
82635;SDS011;72317;37.280;-121.948;2023-08-20T00:47:47;5.45;;;2.83;;
82635;SDS011;72317;37.280;-121.948;2023-08-20T00:50:18;5.47;;;2.88;;
82635;SDS011;72317;37.280;-121.948;2023-08-20T00:52:45;4.93;;;3.08;;
82635;SDS011;72317;37.280;-121.948;2023-08-20T00:55:15;3.92;;;3.10;;
82635;SDS011;72317;37.280;-121.948;2023-08-20T00:57:47;4.38;;;2.90;;
82635;SDS011;72317;37.280;-121.948;2023-08-20T01:00:19;3.45;;;3.03;;
82635;SDS011;72317;37.280;-121.948;2023-08-20T01:02:49;4.75;;;2.90;;
82635;SDS011;72317;37.280;-121.948;2023-08-20T01:05:49;5.72;;;3.05;;
82635;SDS011;72317;37.280;-121.948;2023-08-20T01:08:46;4.22;;;3.03;;
82635;SDS011;72317;37.280;-121.948;2023-08-20T01:11:21;3.85;;;3.05;;
82635;SDS011;72317;37.280;-121.948;2023-08-20T01:13:57;4.10;;;3.10;;
82635;SDS011;72317;37.280;-121.948;2023-08-20T01:16:35;3.55;;;2.90;;
82635;SDS011;72317;37.280;-121.948;2023-08-20T01:19:01;8.98;;;3.45;;
82635;SDS011;72317;37.280;-121.948;2023-08-20T01:21:37;4.55;;;3.28;;
82635;SDS011;72317;37.280;-121.948;2023-08-20T01:29:40;6.63;;;3.45;;
82635;SDS011;72317;37.280;-121.948;2023-08-20T01:32:07;7.60;;;4.22;;
82635;SDS011;72317;37.280;-121.948;2023-08-20T01:34:37;7.38;;;3.97;;
82635;SDS011;72317;37.280;-121.948;2023-08-20T01:37:15;5.60;;;3.70;;
82635;SDS011;72317;37.280;-121.948;2023-08-20T01:39:42;7.13;;;3.72;;
82635;SDS011;72317;37.280;-121.948;2023-08-20T01:42:08;7.65;;;3.72;;
82635;SDS011;72317;37.280;-121.948;2023-08-20T01:44:35;6.50;;;4.00;;
82635;SDS011;72317;37.280;-121.948;2023-08-20T01:47:01;6.35;;;3.92;;
82635;SDS011;72317;37.280;-121.948;2023-08-20T01:49:30;8.73;;;3.65;;
82635;SDS011;72317;37.280;-121.948;2023-08-20T01:52:00;6.65;;;4.13;;
82635;SDS011;72317;37.280;-121.948;2023-08-20T01:54:29;7.22;;;3.70;;
82635;SDS011;72317;37.280;-121.948;2023-08-20T01:56:57;6.45;;;3.78;;
82635;SDS011;72317;37.280;-121.948;2023-08-20T01:59:32;9.00;;;4.45;;
82635;SDS011;72317;37.280;-121.948;2023-08-20T02:02:02;7.40;;;3.92;;
82635;SDS011;72317;37.280;-121.948;2023-08-20T02:04:45;8.23;;;4.35;;
82635;SDS011;72317;37.280;-121.948;2023-08-20T02:07:20;7.95;;;4.35;;
82635;SDS011;72317;37.280;-121.948;2023-08-20T02:09:55;7.72;;;4.72;;
82635;SDS011;72317;37.280;-121.948;2023-08-20T02:12:22;8.35;;;4.20;;
82635;SDS011;72317;37.280;-121.948;2023-08-20T02:14:51;7.57;;;4.15;;
82635;SDS011;72317;37.280;-121.948;2023-08-20T02:17:28;8.65;;;4.57;;
82635;SDS011;72317;37.280;-121.948;2023-08-20T02:20:06;8.35;;;4.15;;
82635;SDS011;72317;37.280;-121.948;2023-08-20T02:22:35;8.55;;;4.88;;
82635;SDS011;72317;37.280;-121.948;2023-08-20T02:25:04;9.45;;;5.28;;
82635;SDS011;72317;37.280;-121.948;2023-08-20T02:27:45;8.88;;;4.70;;
82635;SDS011;72317;37.280;-121.948;2023-08-20T02:30:12;10.38;;;5.05;;
82635;SDS011;72317;37.280;-121.948;2023-08-20T02:32:41;9.40;;;4.95;;
82635;SDS011;72317;37.280;-121.948;2023-08-20T02:35:08;8.15;;;4.80;;
82635;SDS011;72317;37.280;-121.948;2023-08-20T02:37:38;9.35;;;4.93;;
82635;SDS011;72317;37.280;-121.948;2023-08-20T02:40:06;11.05;;;5.22;;
82635;SDS011;72317;37.280;-121.948;2023-08-20T02:42:34;9.05;;;5.45;;
82635;SDS011;72317;37.280;-121.948;2023-08-20T02:45:06;9.98;;;5.45;;
82635;SDS011;72317;37.280;-121.948;2023-08-20T02:47:43;10.15;;;6.05;;
82635;SDS011;72317;37.280;-121.948;2023-08-20T02:50:10;10.57;;;6.50;;
82635;SDS011;72317;37.280;-121.948;2023-08-20T02:52:36;10.40;;;5.45;;
82635;SDS011;72317;37.280;-121.948;2023-08-20T02:55:04;9.70;;;5.40;;
82635;SDS011;72317;37.280;-121.948;2023-08-20T02:57:32;9.43;;;4.97;;
82635;SDS011;72317;37.280;-121.948;2023-08-20T02:59:59;10.40;;;5.47;;
82635;SDS011;72317;37.280;-121.948;2023-08-20T03:02:25;9.15;;;5.00;;
82635;SDS011;72317;37.280;-121.948;2023-08-20T03:04:52;10.85;;;5.35;;
82635;SDS011;72317;37.280;-121.948;2023-08-20T03:07:21;10.07;;;5.30;;
82635;SDS011;72317;37.280;-121.948;2023-08-20T03:09:48;8.32;;;5.22;;
82635;SDS011;72317;37.280;-121.948;2023-08-20T03:12:14;9.73;;;5.40;;
82635;SDS011;72317;37.280;-121.948;2023-08-20T03:14:43;8.70;;;5.07;;
82635;SDS011;72317;37.280;-121.948;2023-08-20T03:17:09;9.85;;;5.50;;
82635;SDS011;72317;37.280;-121.948;2023-08-20T03:19:35;8.98;;;4.97;;
82635;SDS011;72317;37.280;-121.948;2023-08-20T03:22:02;13.27;;;5.60;;
82635;SDS011;72317;37.280;-121.948;2023-08-20T03:24:28;10.27;;;4.82;;
82635;SDS011;72317;37.280;-121.948;2023-08-20T03:26:54;11.48;;;5.47;;
82635;SDS011;72317;37.280;-121.948;2023-08-20T03:29:23;12.60;;;5.30;;
82635;SDS011;72317;37.280;-121.948;2023-08-20T03:31:49;11.80;;;5.40;;
82635;SDS011;72317;37.280;-121.948;2023-08-20T03:34:16;10.88;;;5.82;;
82635;SDS011;72317;37.280;-121.948;2023-08-20T03:36:42;13.13;;;5.65;;
82635;SDS011;72317;37.280;-121.948;2023-08-20T03:39:09;12.27;;;5.32;;
82635;SDS011;72317;37.280;-121.948;2023-08-20T03:41:35;8.60;;;5.25;;
82635;SDS011;72317;37.280;-121.948;2023-08-20T03:44:04;9.55;;;5.57;;
82635;SDS011;72317;37.280;-121.948;2023-08-20T03:46:31;9.43;;;5.28;;
82635;SDS011;72317;37.280;-121.948;2023-08-20T03:48:57;9.38;;;5.20;;
82635;SDS011;72317;37.280;-121.948;2023-08-20T03:51:23;8.48;;;5.60;;
82635;SDS011;72317;37.280;-121.948;2023-08-20T03:53:50;10.52;;;5.80;;
82635;SDS011;72317;37.280;-121.948;2023-08-20T03:56:19;9.82;;;5.70;;
82635;SDS011;72317;37.280;-121.948;2023-08-20T03:58:51;9.75;;;5.65;;
82635;SDS011;72317;37.280;-121.948;2023-08-20T04:01:21;7.53;;;5.68;;
82635;SDS011;72317;37.280;-121.948;2023-08-20T04:03:50;8.07;;;5.47;;
82635;SDS011;72317;37.280;-121.948;2023-08-20T04:06:16;11.88;;;5.57;;
82635;SDS011;72317;37.280;-121.948;2023-08-20T04:08:42;10.77;;;6.05;;
82635;SDS011;72317;37.280;-121.948;2023-08-20T04:11:09;11.93;;;6.15;;
82635;SDS011;72317;37.280;-121.948;2023-08-20T04:13:35;10.07;;;6.03;;
82635;SDS011;72317;37.280;-121.948;2023-08-20T04:16:02;10.88;;;6.00;;
82635;SDS011;72317;37.280;-121.948;2023-08-20T04:18:28;8.30;;;5.63;;
82635;SDS011;72317;37.280;-121.948;2023-08-20T04:21:00;8.88;;;5.38;;
82635;SDS011;72317;37.280;-121.948;2023-08-20T04:23:28;8.57;;;5.40;;
82635;SDS011;72317;37.280;-121.948;2023-08-20T04:25:54;10.38;;;5.65;;
82635;SDS011;72317;37.280;-121.948;2023-08-20T04:28:21;8.60;;;6.00;;
82635;SDS011;72317;37.280;-121.948;2023-08-20T04:30:53;10.20;;;5.63;;
82635;SDS011;72317;37.280;-121.948;2023-08-20T04:33:21;10.90;;;6.47;;
82635;SDS011;72317;37.280;-121.948;2023-08-20T04:35:51;10.60;;;6.20;;
82635;SDS011;72317;37.280;-121.948;2023-08-20T04:38:18;10.45;;;6.15;;
82635;SDS011;72317;37.280;-121.948;2023-08-20T04:40:47;11.32;;;6.72;;
82635;SDS011;72317;37.280;-121.948;2023-08-20T04:43:14;8.18;;;5.47;;
82635;SDS011;72317;37.280;-121.948;2023-08-20T04:45:41;10.45;;;5.93;;
82635;SDS011;72317;37.280;-121.948;2023-08-20T04:48:10;8.02;;;5.80;;
82635;SDS011;72317;37.280;-121.948;2023-08-20T04:50:38;8.65;;;5.93;;
82635;SDS011;72317;37.280;-121.948;2023-08-20T04:53:04;9.02;;;5.85;;
82635;SDS011;72317;37.280;-121.948;2023-08-20T04:55:30;10.52;;;6.47;;
82635;SDS011;72317;37.280;-121.948;2023-08-20T04:57:57;12.10;;;6.22;;
82635;SDS011;72317;37.280;-121.948;2023-08-20T05:00:25;10.88;;;6.45;;
82635;SDS011;72317;37.280;-121.948;2023-08-20T05:02:52;10.43;;;6.40;;
82635;SDS011;72317;37.280;-121.948;2023-08-20T05:05:26;15.07;;;6.90;;
82635;SDS011;72317;37.280;-121.948;2023-08-20T05:07:55;8.95;;;5.80;;
82635;SDS011;72317;37.280;-121.948;2023-08-20T05:10:21;11.65;;;6.50;;
82635;SDS011;72317;37.280;-121.948;2023-08-20T05:12:48;10.23;;;6.38;;
82635;SDS011;72317;37.280;-121.948;2023-08-20T05:15:14;8.23;;;6.38;;
82635;SDS011;72317;37.280;-121.948;2023-08-20T05:17:41;11.07;;;6.45;;
82635;SDS011;72317;37.280;-121.948;2023-08-20T05:20:07;8.93;;;6.05;;
82635;SDS011;72317;37.280;-121.948;2023-08-20T05:22:34;11.25;;;6.65;;
82635;SDS011;72317;37.280;-121.948;2023-08-20T05:25:09;10.23;;;6.38;;
82635;SDS011;72317;37.280;-121.948;2023-08-20T05:27:36;11.35;;;6.90;;
82635;SDS011;72317;37.280;-121.948;2023-08-20T05:30:02;9.52;;;6.45;;
82635;SDS011;72317;37.280;-121.948;2023-08-20T05:32:29;12.48;;;6.93;;
82635;SDS011;72317;37.280;-121.948;2023-08-20T05:34:58;11.65;;;6.97;;
82635;SDS011;72317;37.280;-121.948;2023-08-20T05:37:25;12.30;;;7.25;;
82635;SDS011;72317;37.280;-121.948;2023-08-20T05:39:57;13.63;;;7.80;;
82635;SDS011;72317;37.280;-121.948;2023-08-20T05:42:23;14.57;;;8.35;;
82635;SDS011;72317;37.280;-121.948;2023-08-20T05:44:50;15.80;;;8.32;;
82635;SDS011;72317;37.280;-121.948;2023-08-20T05:47:16;13.55;;;7.50;;
82635;SDS011;72317;37.280;-121.948;2023-08-20T05:49:43;13.18;;;7.88;;
82635;SDS011;72317;37.280;-121.948;2023-08-20T05:52:09;15.27;;;7.97;;
82635;SDS011;72317;37.280;-121.948;2023-08-20T05:54:35;15.60;;;7.97;;
82635;SDS011;72317;37.280;-121.948;2023-08-20T05:57:02;12.52;;;7.88;;
82635;SDS011;72317;37.280;-121.948;2023-08-20T05:59:28;13.93;;;7.38;;
82635;SDS011;72317;37.280;-121.948;2023-08-20T06:01:55;13.70;;;7.93;;
82635;SDS011;72317;37.280;-121.948;2023-08-20T06:04:21;16.02;;;7.90;;
82635;SDS011;72317;37.280;-121.948;2023-08-20T06:06:48;15.13;;;7.70;;
82635;SDS011;72317;37.280;-121.948;2023-08-20T06:09:14;15.77;;;8.18;;
82635;SDS011;72317;37.280;-121.948;2023-08-20T06:11:40;14.55;;;7.72;;
82635;SDS011;72317;37.280;-121.948;2023-08-20T06:14:09;15.60;;;7.90;;
82635;SDS011;72317;37.280;-121.948;2023-08-20T06:16:35;15.93;;;8.05;;
82635;SDS011;72317;37.280;-121.948;2023-08-20T06:19:02;15.88;;;8.23;;
82635;SDS011;72317;37.280;-121.948;2023-08-20T06:21:28;17.88;;;8.10;;
82635;SDS011;72317;37.280;-121.948;2023-08-20T06:23:54;15.38;;;7.85;;
82635;SDS011;72317;37.280;-121.948;2023-08-20T06:26:21;15.45;;;8.60;;
82635;SDS011;72317;37.280;-121.948;2023-08-20T06:28:47;16.95;;;8.02;;
82635;SDS011;72317;37.280;-121.948;2023-08-20T06:31:13;14.25;;;7.53;;
82635;SDS011;72317;37.280;-121.948;2023-08-20T06:33:40;16.27;;;8.30;;
82635;SDS011;72317;37.280;-121.948;2023-08-20T06:36:07;12.73;;;7.78;;
82635;SDS011;72317;37.280;-121.948;2023-08-20T06:38:33;19.08;;;8.63;;
82635;SDS011;72317;37.280;-121.948;2023-08-20T06:41:00;17.98;;;8.48;;
82635;SDS011;72317;37.280;-121.948;2023-08-20T06:43:26;17.88;;;9.18;;
82635;SDS011;72317;37.280;-121.948;2023-08-20T06:45:52;17.33;;;7.60;;
82635;SDS011;72317;37.280;-121.948;2023-08-20T06:48:22;14.45;;;7.72;;
82635;SDS011;72317;37.280;-121.948;2023-08-20T06:50:50;15.45;;;7.95;;
82635;SDS011;72317;37.280;-121.948;2023-08-20T06:53:16;18.45;;;8.55;;
82635;SDS011;72317;37.280;-121.948;2023-08-20T06:55:43;15.05;;;7.88;;
82635;SDS011;72317;37.280;-121.948;2023-08-20T06:58:09;18.15;;;8.63;;
82635;SDS011;72317;37.280;-121.948;2023-08-20T07:00:39;15.18;;;8.20;;
82635;SDS011;72317;37.280;-121.948;2023-08-20T07:03:08;17.00;;;8.48;;
82635;SDS011;72317;37.280;-121.948;2023-08-20T07:05:34;17.88;;;7.95;;
82635;SDS011;72317;37.280;-121.948;2023-08-20T07:08:01;14.52;;;8.25;;
82635;SDS011;72317;37.280;-121.948;2023-08-20T07:10:27;16.13;;;7.95;;
82635;SDS011;72317;37.280;-121.948;2023-08-20T07:12:54;13.90;;;8.18;;
82635;SDS011;72317;37.280;-121.948;2023-08-20T07:15:20;13.27;;;7.78;;
82635;SDS011;72317;37.280;-121.948;2023-08-20T07:17:47;14.20;;;8.05;;
82635;SDS011;72317;37.280;-121.948;2023-08-20T07:20:13;14.85;;;7.90;;
82635;SDS011;72317;37.280;-121.948;2023-08-20T07:22:39;17.02;;;8.20;;
82635;SDS011;72317;37.280;-121.948;2023-08-20T07:25:08;15.70;;;8.15;;
82635;SDS011;72317;37.280;-121.948;2023-08-20T07:27:34;13.23;;;7.93;;
82635;SDS011;72317;37.280;-121.948;2023-08-20T07:30:00;18.00;;;8.07;;
82635;SDS011;72317;37.280;-121.948;2023-08-20T07:32:28;15.35;;;8.13;;
82635;SDS011;72317;37.280;-121.948;2023-08-20T07:34:54;15.52;;;8.27;;
82635;SDS011;72317;37.280;-121.948;2023-08-20T07:37:20;11.23;;;7.10;;
82635;SDS011;72317;37.280;-121.948;2023-08-20T07:39:47;14.35;;;7.57;;
82635;SDS011;72317;37.280;-121.948;2023-08-20T07:42:13;15.10;;;7.97;;
82635;SDS011;72317;37.280;-121.948;2023-08-20T07:44:39;14.98;;;7.88;;
82635;SDS011;72317;37.280;-121.948;2023-08-20T07:47:06;16.13;;;8.23;;
82635;SDS011;72317;37.280;-121.948;2023-08-20T07:49:35;11.95;;;7.47;;
82635;SDS011;72317;37.280;-121.948;2023-08-20T07:52:01;16.85;;;8.27;;
82635;SDS011;72317;37.280;-121.948;2023-08-20T07:54:28;13.88;;;7.97;;
82635;SDS011;72317;37.280;-121.948;2023-08-20T07:56:54;12.75;;;8.02;;
82635;SDS011;72317;37.280;-121.948;2023-08-20T07:59:21;15.98;;;8.32;;
82635;SDS011;72317;37.280;-121.948;2023-08-20T08:01:47;12.50;;;8.13;;
82635;SDS011;72317;37.280;-121.948;2023-08-20T08:04:14;13.52;;;8.32;;
82635;SDS011;72317;37.280;-121.948;2023-08-20T08:06:41;12.23;;;7.80;;
82635;SDS011;72317;37.280;-121.948;2023-08-20T08:12:12;12.85;;;7.55;;
82635;SDS011;72317;37.280;-121.948;2023-08-20T08:14:38;13.32;;;7.47;;
82635;SDS011;72317;37.280;-121.948;2023-08-20T08:17:04;13.48;;;7.90;;
82635;SDS011;72317;37.280;-121.948;2023-08-20T08:19:33;14.50;;;7.93;;
82635;SDS011;72317;37.280;-121.948;2023-08-20T08:22:00;13.40;;;7.43;;
82635;SDS011;72317;37.280;-121.948;2023-08-20T08:24:26;13.52;;;8.13;;
82635;SDS011;72317;37.280;-121.948;2023-08-20T08:26:53;10.80;;;7.63;;
82635;SDS011;72317;37.280;-121.948;2023-08-20T08:29:19;13.85;;;8.15;;
82635;SDS011;72317;37.280;-121.948;2023-08-20T08:31:45;16.45;;;7.93;;
82635;SDS011;72317;37.280;-121.948;2023-08-20T08:34:12;12.32;;;7.93;;
82635;SDS011;72317;37.280;-121.948;2023-08-20T08:36:39;14.68;;;8.18;;
82635;SDS011;72317;37.280;-121.948;2023-08-20T08:39:06;14.57;;;8.43;;
82635;SDS011;72317;37.280;-121.948;2023-08-20T08:41:32;16.75;;;8.63;;
82635;SDS011;72317;37.280;-121.948;2023-08-20T08:44:05;13.00;;;7.85;;
82635;SDS011;72317;37.280;-121.948;2023-08-20T08:46:35;12.13;;;8.50;;
82635;SDS011;72317;37.280;-121.948;2023-08-20T08:49:04;16.10;;;8.30;;
82635;SDS011;72317;37.280;-121.948;2023-08-20T08:51:30;15.18;;;8.60;;
82635;SDS011;72317;37.280;-121.948;2023-08-20T08:53:58;16.40;;;8.95;;
82635;SDS011;72317;37.280;-121.948;2023-08-20T08:56:25;15.80;;;8.40;;
82635;SDS011;72317;37.280;-121.948;2023-08-20T08:58:52;16.23;;;8.63;;
82635;SDS011;72317;37.280;-121.948;2023-08-20T09:01:19;13.82;;;8.68;;
82635;SDS011;72317;37.280;-121.948;2023-08-20T09:03:47;12.07;;;8.23;;
82635;SDS011;72317;37.280;-121.948;2023-08-20T09:06:14;14.48;;;8.32;;
82635;SDS011;72317;37.280;-121.948;2023-08-20T09:08:40;16.17;;;8.65;;
82635;SDS011;72317;37.280;-121.948;2023-08-20T09:11:07;15.02;;;8.10;;
82635;SDS011;72317;37.280;-121.948;2023-08-20T09:13:34;21.10;;;9.10;;
82635;SDS011;72317;37.280;-121.948;2023-08-20T09:16:09;15.52;;;8.63;;
82635;SDS011;72317;37.280;-121.948;2023-08-20T09:18:45;16.08;;;8.43;;
82635;SDS011;72317;37.280;-121.948;2023-08-20T09:21:12;15.23;;;8.25;;
82635;SDS011;72317;37.280;-121.948;2023-08-20T09:23:39;15.75;;;9.70;;
82635;SDS011;72317;37.280;-121.948;2023-08-20T09:26:06;13.48;;;8.30;;
82635;SDS011;72317;37.280;-121.948;2023-08-20T09:28:45;17.15;;;8.73;;
82635;SDS011;72317;37.280;-121.948;2023-08-20T09:31:12;15.25;;;8.80;;
82635;SDS011;72317;37.280;-121.948;2023-08-20T09:33:52;18.08;;;9.63;;
82635;SDS011;72317;37.280;-121.948;2023-08-20T09:36:31;15.88;;;9.27;;
82635;SDS011;72317;37.280;-121.948;2023-08-20T09:38:59;16.83;;;9.02;;
82635;SDS011;72317;37.280;-121.948;2023-08-20T09:41:27;17.25;;;8.57;;
82635;SDS011;72317;37.280;-121.948;2023-08-20T09:43:58;15.95;;;9.73;;
82635;SDS011;72317;37.280;-121.948;2023-08-20T09:46:26;17.83;;;8.50;;
82635;SDS011;72317;37.280;-121.948;2023-08-20T09:48:56;19.42;;;9.38;;
82635;SDS011;72317;37.280;-121.948;2023-08-20T09:51:27;18.35;;;10.00;;
82635;SDS011;72317;37.280;-121.948;2023-08-20T09:54:13;17.67;;;9.23;;
82635;SDS011;72317;37.280;-121.948;2023-08-20T09:56:46;15.15;;;8.88;;
82635;SDS011;72317;37.280;-121.948;2023-08-20T09:59:19;17.55;;;9.20;;
82635;SDS011;72317;37.280;-121.948;2023-08-20T10:01:47;17.20;;;9.35;;
82635;SDS011;72317;37.280;-121.948;2023-08-20T10:04:14;17.58;;;9.82;;
82635;SDS011;72317;37.280;-121.948;2023-08-20T10:06:42;20.42;;;9.90;;
82635;SDS011;72317;37.280;-121.948;2023-08-20T10:09:09;18.58;;;10.13;;
82635;SDS011;72317;37.280;-121.948;2023-08-20T10:11:35;18.98;;;10.35;;
82635;SDS011;72317;37.280;-121.948;2023-08-20T10:14:03;19.75;;;10.15;;
82635;SDS011;72317;37.280;-121.948;2023-08-20T10:16:32;16.85;;;9.98;;
82635;SDS011;72317;37.280;-121.948;2023-08-20T10:19:05;14.85;;;9.80;;
82635;SDS011;72317;37.280;-121.948;2023-08-20T10:21:32;16.95;;;9.13;;
82635;SDS011;72317;37.280;-121.948;2023-08-20T10:24:08;17.02;;;10.20;;
82635;SDS011;72317;37.280;-121.948;2023-08-20T10:26:34;15.60;;;9.38;;
82635;SDS011;72317;37.280;-121.948;2023-08-20T10:32:10;20.00;;;10.23;;
82635;SDS011;72317;37.280;-121.948;2023-08-20T10:34:42;19.60;;;10.13;;
82635;SDS011;72317;37.280;-121.948;2023-08-20T10:37:15;20.15;;;10.13;;
82635;SDS011;72317;37.280;-121.948;2023-08-20T10:39:41;19.10;;;10.07;;
82635;SDS011;72317;37.280;-121.948;2023-08-20T10:47:35;18.70;;;10.10;;
82635;SDS011;72317;37.280;-121.948;2023-08-20T10:50:09;21.40;;;10.60;;
82635;SDS011;72317;37.280;-121.948;2023-08-20T10:52:55;21.15;;;10.73;;
82635;SDS011;72317;37.280;-121.948;2023-08-20T10:55:23;16.20;;;10.18;;
82635;SDS011;72317;37.280;-121.948;2023-08-20T10:57:56;18.00;;;10.95;;
82635;SDS011;72317;37.280;-121.948;2023-08-20T11:00:24;19.13;;;10.98;;
82635;SDS011;72317;37.280;-121.948;2023-08-20T11:02:51;17.83;;;10.77;;
82635;SDS011;72317;37.280;-121.948;2023-08-20T11:05:19;17.85;;;10.05;;
82635;SDS011;72317;37.280;-121.948;2023-08-20T11:07:52;17.13;;;10.20;;
82635;SDS011;72317;37.280;-121.948;2023-08-20T11:10:18;15.85;;;10.13;;
82635;SDS011;72317;37.280;-121.948;2023-08-20T11:12:47;16.38;;;10.15;;
82635;SDS011;72317;37.280;-121.948;2023-08-20T11:15:14;17.45;;;9.40;;
82635;SDS011;72317;37.280;-121.948;2023-08-20T11:17:43;18.77;;;9.98;;
82635;SDS011;72317;37.280;-121.948;2023-08-20T11:20:12;11.95;;;8.88;;
82635;SDS011;72317;37.280;-121.948;2023-08-20T11:22:40;16.60;;;9.05;;
82635;SDS011;72317;37.280;-121.948;2023-08-20T11:25:10;16.27;;;9.73;;
82635;SDS011;72317;37.280;-121.948;2023-08-20T11:27:41;18.17;;;10.23;;
82635;SDS011;72317;37.280;-121.948;2023-08-20T11:30:09;16.98;;;10.45;;
82635;SDS011;72317;37.280;-121.948;2023-08-20T11:32:38;17.73;;;10.13;;
82635;SDS011;72317;37.280;-121.948;2023-08-20T11:35:05;18.75;;;10.73;;
82635;SDS011;72317;37.280;-121.948;2023-08-20T11:37:33;15.38;;;10.15;;
82635;SDS011;72317;37.280;-121.948;2023-08-20T11:40:00;16.20;;;10.13;;
82635;SDS011;72317;37.280;-121.948;2023-08-20T11:42:26;17.33;;;9.73;;
82635;SDS011;72317;37.280;-121.948;2023-08-20T11:44:55;19.23;;;10.18;;
82635;SDS011;72317;37.280;-121.948;2023-08-20T11:47:22;17.90;;;10.35;;
82635;SDS011;72317;37.280;-121.948;2023-08-20T11:50:01;17.20;;;10.75;;
82635;SDS011;72317;37.280;-121.948;2023-08-20T11:52:33;16.73;;;10.45;;
82635;SDS011;72317;37.280;-121.948;2023-08-20T11:55:01;14.93;;;9.75;;
82635;SDS011;72317;37.280;-121.948;2023-08-20T11:57:29;14.00;;;9.57;;
82635;SDS011;72317;37.280;-121.948;2023-08-20T12:00:00;16.15;;;10.50;;
82635;SDS011;72317;37.280;-121.948;2023-08-20T12:02:34;14.55;;;9.50;;
82635;SDS011;72317;37.280;-121.948;2023-08-20T12:05:00;18.05;;;10.68;;
82635;SDS011;72317;37.280;-121.948;2023-08-20T12:07:29;16.95;;;9.35;;
82635;SDS011;72317;37.280;-121.948;2023-08-20T12:09:55;14.23;;;9.93;;
82635;SDS011;72317;37.280;-121.948;2023-08-20T12:12:22;15.52;;;9.60;;
82635;SDS011;72317;37.280;-121.948;2023-08-20T12:14:48;16.00;;;10.13;;
82635;SDS011;72317;37.280;-121.948;2023-08-20T12:17:20;19.08;;;10.32;;
82635;SDS011;72317;37.280;-121.948;2023-08-20T12:19:47;20.80;;;12.00;;
82635;SDS011;72317;37.280;-121.948;2023-08-20T12:22:13;22.05;;;11.65;;
82635;SDS011;72317;37.280;-121.948;2023-08-20T12:24:39;20.58;;;11.30;;
82635;SDS011;72317;37.280;-121.948;2023-08-20T12:27:06;20.88;;;12.07;;
82635;SDS011;72317;37.280;-121.948;2023-08-20T12:29:32;22.67;;;12.13;;
82635;SDS011;72317;37.280;-121.948;2023-08-20T12:31:59;22.85;;;11.50;;
82635;SDS011;72317;37.280;-121.948;2023-08-20T12:34:29;24.35;;;12.80;;
82635;SDS011;72317;37.280;-121.948;2023-08-20T12:36:55;24.80;;;12.65;;
82635;SDS011;72317;37.280;-121.948;2023-08-20T12:39:22;22.50;;;12.75;;
82635;SDS011;72317;37.280;-121.948;2023-08-20T12:41:48;23.90;;;11.45;;
82635;SDS011;72317;37.280;-121.948;2023-08-20T12:44:15;23.00;;;12.15;;
82635;SDS011;72317;37.280;-121.948;2023-08-20T12:46:41;25.13;;;11.85;;
82635;SDS011;72317;37.280;-121.948;2023-08-20T12:49:07;21.58;;;11.82;;
82635;SDS011;72317;37.280;-121.948;2023-08-20T12:51:34;24.27;;;11.48;;
82635;SDS011;72317;37.280;-121.948;2023-08-20T12:54:00;21.45;;;11.88;;
82635;SDS011;72317;37.280;-121.948;2023-08-20T12:56:32;20.83;;;12.27;;
82635;SDS011;72317;37.280;-121.948;2023-08-20T12:58:59;23.40;;;12.10;;
82635;SDS011;72317;37.280;-121.948;2023-08-20T13:01:25;24.65;;;13.30;;
82635;SDS011;72317;37.280;-121.948;2023-08-20T13:03:55;21.55;;;12.88;;
82635;SDS011;72317;37.280;-121.948;2023-08-20T13:06:21;22.05;;;12.93;;
82635;SDS011;72317;37.280;-121.948;2023-08-20T13:08:48;24.92;;;13.40;;
82635;SDS011;72317;37.280;-121.948;2023-08-20T13:11:17;25.45;;;13.55;;
82635;SDS011;72317;37.280;-121.948;2023-08-20T13:13:45;26.15;;;13.73;;
82635;SDS011;72317;37.280;-121.948;2023-08-20T13:16:12;22.05;;;13.07;;
82635;SDS011;72317;37.280;-121.948;2023-08-20T13:18:39;24.15;;;13.02;;
82635;SDS011;72317;37.280;-121.948;2023-08-20T13:21:05;20.58;;;11.70;;
82635;SDS011;72317;37.280;-121.948;2023-08-20T13:23:32;23.23;;;12.35;;
82635;SDS011;72317;37.280;-121.948;2023-08-20T13:25:58;22.40;;;13.10;;
82635;SDS011;72317;37.280;-121.948;2023-08-20T13:28:24;22.73;;;13.18;;
82635;SDS011;72317;37.280;-121.948;2023-08-20T13:30:51;23.48;;;12.48;;
82635;SDS011;72317;37.280;-121.948;2023-08-20T13:33:17;21.52;;;12.75;;
82635;SDS011;72317;37.280;-121.948;2023-08-20T13:35:43;24.27;;;14.25;;
82635;SDS011;72317;37.280;-121.948;2023-08-20T13:38:10;24.95;;;14.68;;
82635;SDS011;72317;37.280;-121.948;2023-08-20T13:40:36;24.73;;;14.65;;
82635;SDS011;72317;37.280;-121.948;2023-08-20T13:43:02;19.75;;;13.00;;
82635;SDS011;72317;37.280;-121.948;2023-08-20T13:45:29;21.10;;;13.07;;
82635;SDS011;72317;37.280;-121.948;2023-08-20T13:47:56;23.98;;;13.68;;
82635;SDS011;72317;37.280;-121.948;2023-08-20T13:50:22;24.65;;;14.57;;
82635;SDS011;72317;37.280;-121.948;2023-08-20T13:52:49;22.17;;;14.23;;
82635;SDS011;72317;37.280;-121.948;2023-08-20T13:55:17;19.15;;;13.20;;
82635;SDS011;72317;37.280;-121.948;2023-08-20T13:57:44;28.35;;;15.05;;
82635;SDS011;72317;37.280;-121.948;2023-08-20T14:00:10;22.90;;;13.10;;
82635;SDS011;72317;37.280;-121.948;2023-08-20T14:02:38;25.30;;;14.02;;
82635;SDS011;72317;37.280;-121.948;2023-08-20T14:05:04;24.42;;;13.90;;
82635;SDS011;72317;37.280;-121.948;2023-08-20T14:07:31;22.65;;;14.32;;
82635;SDS011;72317;37.280;-121.948;2023-08-20T14:10:01;25.40;;;14.40;;
82635;SDS011;72317;37.280;-121.948;2023-08-20T14:12:29;20.98;;;13.98;;
82635;SDS011;72317;37.280;-121.948;2023-08-20T14:14:55;24.70;;;13.48;;
82635;SDS011;72317;37.280;-121.948;2023-08-20T14:17:42;22.75;;;15.15;;
82635;SDS011;72317;37.280;-121.948;2023-08-20T14:20:08;22.13;;;13.50;;
82635;SDS011;72317;37.280;-121.948;2023-08-20T14:22:36;24.38;;;15.18;;
82635;SDS011;72317;37.280;-121.948;2023-08-20T14:25:03;26.23;;;14.55;;